BBA weather

Balmaceda Airport
Balmaceda, Aysén Region, Chile

Public forecast

Using degrees Celsius for public forecast. Weather courtesy of forecast.io.

METAR (pilot weather report)

Retrieved 2019/05/21 02:00 UTC (45 minutes ago):

SCBA 210200Z AUTO 25005KT CAVOK M02/M03 Q1028

TAF (pilot weather forecast)

Forecast is more than 12 hours old.

Retrieved 2019/05/20 00:00 UTC (1 day ago):

TAF SCBA 202216Z 2100/2124 25007KT CAVOK TNM07/2111Z TX06/2018Z BECMG 2109/2111 BKN025 BECMG 2113/2115 30007KT SCT035 BECMG 2117/2119 30012KT CAVOK